Terminal Aerodrome Forecast
Issued by NWS Wilmington, NC

Home | Current Version | Previous Version | Text Only | Print | Product List | Glossary On
Versions: 1 2 3 4 5 6 7 8 9 10 11 12 13 14 15 16
405
FTUS42 KILM 302320
TAFFLO
TAF
KFLO 302320Z 3100/3124 VRB03KT P6SM FEW050 SCT150
     FM311200 07007KT P6SM VCSH FEW050 BKN200
     FM311800 09008KT P6SM VCTS SCT050CB BKN120=

USA.gov is the U.S. government's official web portal to all federal, state and local government web resources and services.